Daily Summary

Last 30 Days

Daily Data | Pacific/Honolulu
as of 3/2/24 1:06 AM HST
Date Daily Max Temp (°F) Time of Max Temp Daily Min Temp (°F) Time of Min Temp Daily Rain (In) Season Precip (In) Wind Spd (mph) Daily Max Wind (mph) Time of Max Wind Max Wind Dir (°) Daily Solar Rad (Cal/cm2) Daily ETo (in) Dew Pt (°F) Max RH (%) Min RH (%) Max Press (inHg) Time of Max Press Min Press (inHg) Time of Min Press MinBV Day (V)
3/1/24 79.2 1150 72.1 0626 0.00 2.22 9.1 35.6 1549 NE | 43 562 0.200 64.3 78 60 30.21 2156 30.07 1516 12.7
2/29/24 78.4 1304 68.9 0206 0.08 2.22 9.2 27.4 1347 NE | 35 511 0.187 64.1 87 59 30.19 2332 30.06 1639 12.7
2/28/24 77.9 1048 70.0 2001 0.09 2.14 8.7 29.7 0911 NNE | 20 412 0.155 63.7 86 61 30.20 0006 30.07 1609 12.7
2/27/24 77.6 1450 71.4 2338 0.01 2.05 11.0 32.7 1224 NE | 45 482 0.190 62.6 77 58 30.26 1008 30.10 1512 12.7
2/26/24 78.3 1416 70.2 0008 0.00 2.04 9.7 28.2 2208 ENE | 70 508 0.188 62.7 78 60 30.25 1011 30.12 1536 12.7
2/25/24 76.7 1412 69.4 2323 0.02 2.04 9.2 30.1 1031 NNE | 24 471 0.173 62.2 80 59 30.22 2359 30.07 0412 12.7
2/24/24 79.0 0949 70.7 1111 0.02 2.02 6.8 26.7 1616 NE | 51 305 0.116 64.4 84 64 30.17 1110 30.03 1548 12.7
2/23/24 80.3 1211 71.9 0634 0.01 2.00 7.5 24.4 1424 NNE | 28 509 0.181 64.7 79 55 30.17 0001 30.02 1424 12.7
2/22/24 79.7 1105 71.3 0549 0.00 1.99 5.8 23.0 0050 NE | 54 361 0.138 64.3 79 57 30.22 0936 30.10 1506 12.7
2/21/24 78.8 1110 70.3 0001 0.02 1.99 5.8 18.8 0952 NE | 48 315 0.126 63.5 79 59 30.26 1019 30.12 1522 12.7
2/20/24 80.5 1430 70.5 2358 0.00 1.97 5.9 20.0 1716 NE | 35 380 0.155 59.3 77 43 30.26 0931 30.13 1612 12.7
2/19/24 76.9 1400 69.8 0012 0.00 1.97 8.2 27.1 1048 ENE | 66 445 0.183 57.1 73 46 30.27 1013 30.15 1602 12.7
2/18/24 75.5 1147 69.7 0558 0.00 1.97 10.3 31.7 1420 NE | 44 517 0.208 56.0 68 47 30.27 2155 30.15 1626 12.7
2/17/24 75.2 1230 67.9 0721 0.00 1.97 9.6 30.1 1320 NNE | 30 520 0.209 54.4 71 44 30.23 0929 30.08 1456 12.7
2/16/24 75.1 1346 67.8 0622 0.00 1.97 8.6 29.4 1615 NNE | 29 497 0.175 58.6 76 52 30.18 2328 30.03 0510 12.7
2/15/24 76.6 0137 70.0 2228 0.00 1.97 6.6 22.2 2252 NNE | 16 289 0.109 63.4 89 60 30.09 2215 29.93 0350 12.7
2/14/24 80.1 1445 70.0 0238 0.00 1.97 4.7 20.6 1347 S | 189 351 0.121 67.4 90 65 30.01 0955 29.89 1515 12.7
2/13/24 80.2 1409 66.9 0653 0.00 1.97 3.2 12.1 1312 S | 183 516 0.161 66.2 89 61 30.03 1024 29.88 1552 12.7
2/12/24 80.2 1625 65.4 0253 0.00 1.97 4.1 21.0 1337 SSW | 208 443 0.142 64.3 88 61 30.08 0007 29.93 1543 12.6
2/11/24 80.0 1357 66.0 0654 0.00 1.97 3.8 14.7 1434 SW | 222 460 0.143 65.3 91 60 30.13 0007 30.01 1633 12.6
2/10/24 80.9 1324 69.1 2358 0.06 1.97 3.8 14.8 1442 E | 97 394 0.126 66.6 91 59 30.16 1047 30.04 1436 12.7
2/9/24 81.2 1251 70.7 2319 0.01 1.91 4.4 18.0 0958 ENE | 64 360 0.122 67.2 91 63 30.19 0924 30.05 1620 12.7
2/8/24 81.4 1553 71.7 2352 0.00 1.90 5.8 20.6 1355 NE | 40 432 0.162 64.3 86 55 30.23 1043 30.10 1629 12.7
2/7/24 79.5 1254 73.1 0252 0.00 1.90 8.6 26.2 1209 ENE | 75 393 0.164 63.4 75 58 30.30 1009 30.13 1616 12.7
2/6/24 79.7 1313 72.9 0454 0.00 1.90 9.1 33.2 1046 ENE | 77 437 0.179 62.4 71 56 30.27 2309 30.10 1620 12.7
2/5/24 78.8 1323 69.5 0453 0.02 1.90 9.3 28.8 0122 ENE | 62 403 0.166 61.7 78 56 30.21 0950 30.10 1444 12.7
2/4/24 76.3 1517 68.4 0240 0.00 1.88 10.8 34.1 0457 ENE | 60 384 0.160 60.8 77 57 30.24 0959 30.08 1636 12.7
2/3/24 75.8 1205 69.1 2359 0.00 1.88 9.1 37.7 0041 NE | 36 436 0.176 55.9 74 48 30.27 1017 30.12 1536 12.7
2/2/24 75.1 1227 69.0 0324 0.01 1.88 13.0 42.0 1328 NE | 35 459 0.180 60.1 83 53 30.22 2053 30.06 0400 12.7
2/1/24 80.8 1055 67.2 1953 0.07 1.87 3.4 17.1 2159 NE | 42 156 0.057 67.5 93 62 30.12 1959 29.99 0315 12.7
Max 81.4 - 73.1 - 0.09 2.22 13.0 42.0 - - 562 0.209 67.5 93 65 30.30 - 30.15 - 12.7
Avg - - - - - - 7.5 - - - - - 62.6 - - - - - - -
Min 75.1 - 65.4 - 0.00 1.87 3.2 12.1 - - 156 0.057 54.4 68 43 30.01 - 29.88 - 12.6